Time;durP1;ratioP1;P1;durP2;ratioP2;P2;SDS_P1;SDS_P2;PMS_P1;PMS_P2;Temp;Humidity;BMP_temperature;BMP_pressure;BME280_temperature;BME280_humidity;BME280_pressure;Samples;Min_cycle;Max_cycle;Signal;HPM_P1;HPM_P2
2023/01/14 00:00:13;;;;;;;16.08;4.05;;;7.00;99.90;;;;;;5005832;28;20042;-84
2023/01/14 00:02:38;;;;;;;23.75;5.22;;;7.00;99.90;;;;;;5002177;28;20039;-84
2023/01/14 00:05:04;;;;;;;20.48;4.30;;;7.10;99.90;;;;;;4997375;28;20532;-84
2023/01/14 00:07:30;;;;;;;24.85;4.25;;;7.10;99.90;;;;;;5033529;28;20039;-83
2023/01/14 00:09:55;;;;;;;14.73;3.70;;;7.20;99.90;;;;;;5027176;28;20086;-83
2023/01/14 00:12:21;;;;;;;16.83;4.03;;;7.20;99.90;;;;;;5034923;28;20049;-84
2023/01/14 00:14:47;;;;;;;20.48;4.00;;;7.20;99.90;;;;;;4986945;28;20045;-84
2023/01/14 00:17:12;;;;;;;16.60;4.18;;;7.20;99.90;;;;;;4990109;28;20046;-84
2023/01/14 00:19:38;;;;;;;20.10;5.25;;;7.20;99.90;;;;;;4978034;28;20042;-84
2023/01/14 00:22:04;;;;;;;18.88;4.10;;;7.10;99.90;;;;;;5001718;28;20073;-84
2023/01/14 00:24:30;;;;;;;19.55;4.35;;;7.10;99.90;;;;;;5010303;28;20042;-84
2023/01/14 00:26:57;;;;;;;22.95;3.78;;;7.10;99.90;;;;;;5034223;28;20036;-84
2023/01/14 00:29:31;;;;;;;18.77;4.15;;;7.10;99.90;;;;;;5014613;28;20039;-84
2023/01/14 00:31:59;;;;;;;18.42;4.03;;;7.10;99.90;;;;;;4988794;28;20042;-84
2023/01/14 00:34:26;;;;;;;22.80;4.50;;;7.10;99.90;;;;;;5000496;28;20042;-83
2023/01/14 00:36:52;;;;;;;16.85;4.07;;;7.20;99.90;;;;;;4971880;28;20042;-84
2023/01/14 00:39:18;;;;;;;16.05;3.10;;;7.20;99.90;;;;;;4997310;28;20128;-84
2023/01/14 00:41:44;;;;;;;15.48;3.40;;;7.30;99.90;;;;;;5005039;28;20066;-84
2023/01/14 00:44:09;;;;;;;11.30;2.80;;;7.40;99.90;;;;;;5072000;27;20056;-84
2023/01/14 00:46:39;;;;;;;19.00;3.70;;;7.40;99.90;;;;;;4990011;28;20093;-84
2023/01/14 00:49:07;;;;;;;14.45;3.55;;;7.40;99.90;;;;;;4990254;28;20951;-84
2023/01/14 00:51:34;;;;;;;18.95;3.70;;;7.40;99.90;;;;;;4965355;28;20199;-84
2023/01/14 00:54:01;;;;;;;15.82;3.80;;;7.40;99.90;;;;;;4984858;28;20121;-84
2023/01/14 00:56:27;;;;;;;12.57;3.53;;;7.40;99.90;;;;;;4967110;28;20049;-84
2023/01/14 00:58:53;;;;;;;18.70;3.67;;;7.50;99.90;;;;;;4973440;28;20048;-84
2023/01/14 01:01:20;;;;;;;15.60;3.72;;;7.50;99.90;;;;;;4970304;28;20047;-84
2023/01/14 01:03:48;;;;;;;20.27;4.65;;;7.50;99.90;;;;;;4985643;28;20519;-84
2023/01/14 01:06:16;;;;;;;17.90;3.78;;;7.50;99.90;;;;;;4967958;28;20071;-84
2023/01/14 01:08:42;;;;;;;16.38;3.67;;;7.60;99.90;;;;;;4992101;28;20042;-83
2023/01/14 01:11:08;;;;;;;16.05;3.58;;;7.60;99.90;;;;;;5019167;28;20034;-84
2023/01/14 01:13:35;;;;;;;17.75;3.13;;;7.60;99.90;;;;;;5014322;28;20050;-84
2023/01/14 01:16:04;;;;;;;17.08;3.70;;;7.50;99.90;;;;;;4996491;28;20039;-83
2023/01/14 01:18:30;;;;;;;17.80;3.88;;;7.50;99.90;;;;;;4967738;28;20050;-83
2023/01/14 01:21:09;;;;;;;18.63;3.80;;;7.40;99.90;;;;;;4976127;28;20035;-83
2023/01/14 01:23:40;;;;;;;15.82;3.25;;;7.40;99.90;;;;;;4969702;28;20041;-83
2023/01/14 01:26:07;;;;;;;14.63;3.33;;;7.30;99.90;;;;;;4970052;28;20058;-83
2023/01/14 01:28:33;;;;;;;18.10;3.95;;;7.30;99.90;;;;;;4985319;28;20375;-84
2023/01/14 01:31:03;;;;;;;20.98;3.92;;;7.30;99.90;;;;;;4999066;28;20049;-84
2023/01/14 01:33:29;;;;;;;17.70;3.55;;;7.20;99.90;;;;;;5019025;27;20464;-83
2023/01/14 01:36:04;;;;;;;21.60;3.70;;;7.10;99.90;;;;;;4966931;28;20045;-84
2023/01/14 01:38:31;;;;;;;16.08;3.67;;;7.10;99.90;;;;;;4999866;28;20066;-83
2023/01/14 01:40:57;;;;;;;16.92;3.70;;;7.10;99.90;;;;;;5013303;28;20093;-83
2023/01/14 01:43:27;;;;;;;15.32;3.65;;;7.00;99.90;;;;;;4969871;28;20065;-84
2023/01/14 01:45:53;;;;;;;21.50;3.92;;;7.00;99.90;;;;;;4971411;28;20038;-83
2023/01/14 01:48:34;;;;;;;21.35;3.55;;;6.90;99.90;;;;;;4968179;28;20035;-83
2023/01/14 01:51:15;;;;;;;21.23;3.88;;;6.90;99.90;;;;;;4979725;28;20062;-83
2023/01/14 01:53:44;;;;;;;17.50;3.75;;;6.80;99.90;;;;;;5003862;28;20089;-83
2023/01/14 01:56:14;;;;;;;20.52;3.55;;;6.80;99.90;;;;;;5000748;28;20042;-83
2023/01/14 01:58:40;;;;;;;19.05;3.88;;;6.80;99.90;;;;;;4999975;28;20038;-84
2023/01/14 02:01:06;;;;;;;18.30;4.20;;;6.80;99.90;;;;;;4997888;28;20039;-83
2023/01/14 02:03:40;;;;;;;21.98;4.20;;;6.80;99.90;;;;;;4990798;28;20046;-83
2023/01/14 02:06:06;;;;;;;17.55;4.43;;;6.90;99.90;;;;;;5013938;28;20044;-83
2023/01/14 02:08:35;;;;;;;20.60;3.40;;;6.80;99.90;;;;;;4989788;28;20042;-84
2023/01/14 02:11:31;;;;;;;21.98;4.07;;;6.80;99.90;;;;;;5033767;28;20145;-83
2023/01/14 02:14:21;;;;;;;21.50;4.05;;;6.90;99.90;;;;;;5061893;27;20125;-83
2023/01/14 02:17:34;;;;;;;17.75;3.83;;;6.90;99.90;;;;;;4997375;28;20074;-84
2023/01/14 02:20:28;;;;;;;22.35;4.25;;;7.00;99.90;;;;;;4987706;28;20047;-84
2023/01/14 02:23:26;;;;;;;16.77;3.72;;;6.90;99.90;;;;;;4984064;28;20043;-84
2023/01/14 02:26:08;;;;;;;22.45;4.18;;;6.90;99.90;;;;;;5001586;28;20049;-83
2023/01/14 02:28:54;;;;;;;22.08;4.15;;;6.80;99.90;;;;;;5011858;28;20113;-83
2023/01/14 02:31:33;;;;;;;21.48;4.93;;;6.80;99.90;;;;;;4997664;28;20070;-83
2023/01/14 02:34:13;;;;;;;20.73;4.40;;;6.80;99.90;;;;;;4988128;28;20448;-83
2023/01/14 02:36:55;;;;;;;21.38;4.00;;;6.70;99.90;;;;;;5022451;28;20125;-84
2023/01/14 02:39:25;;;;;;;24.83;3.65;;;6.60;99.90;;;;;;5037813;27;20126;-83
2023/01/14 02:44:56;;;;;;;23.10;3.70;;;6.50;99.90;;;;;;5029026;28;20064;-83
2023/01/14 02:47:27;;;;;;;24.10;3.90;;;6.40;99.90;;;;;;5009265;28;20042;-83
2023/01/14 02:49:56;;;;;;;16.63;3.95;;;6.40;99.90;;;;;;4984305;28;20078;-83
2023/01/14 02:52:22;;;;;;;21.58;3.97;;;6.40;99.90;;;;;;5006253;28;20039;-84
2023/01/14 02:55:00;;;;;;;19.15;3.53;;;6.40;99.90;;;;;;5008461;28;20652;-83
2023/01/14 02:58:04;;;;;;;19.58;3.85;;;6.40;99.90;;;;;;4967053;28;20092;-83
2023/01/14 03:01:07;;;;;;;18.33;3.55;;;6.40;99.90;;;;;;4999269;28;20036;-83
2023/01/14 03:04:09;;;;;;;21.70;4.20;;;6.40;99.90;;;;;;4972468;28;20107;-83
2023/01/14 03:07:01;;;;;;;16.10;3.78;;;6.40;99.90;;;;;;5001376;28;20039;-84
2023/01/14 03:09:37;;;;;;;17.08;3.55;;;6.40;99.90;;;;;;4990273;28;20118;-83
2023/01/14 03:12:11;;;;;;;15.77;4.18;;;6.30;99.90;;;;;;5005103;28;20038;-84
2023/01/14 03:14:56;;;;;;;23.63;4.60;;;6.30;99.90;;;;;;4985643;28;20044;-83
2023/01/14 03:17:36;;;;;;;23.60;4.03;;;6.30;99.90;;;;;;4980325;28;20049;-84
2023/01/14 03:20:18;;;;;;;18.65;4.30;;;6.30;99.90;;;;;;5007140;28;20047;-83
2023/01/14 03:22:45;;;;;;;19.85;3.90;;;6.20;99.90;;;;;;5023425;28;20046;-83
2023/01/14 03:25:13;;;;;;;15.23;3.95;;;6.20;99.90;;;;;;4987413;28;20057;-83
2023/01/14 03:27:41;;;;;;;19.08;3.92;;;6.10;99.90;;;;;;4979458;28;20035;-83
2023/01/14 03:30:18;;;;;;;19.35;3.65;;;6.10;99.90;;;;;;4980949;28;20026;-83
2023/01/14 03:33:06;;;;;;;15.80;3.60;;;6.00;99.90;;;;;;5071492;28;20041;-83
2023/01/14 03:35:35;;;;;;;20.70;3.58;;;6.00;99.90;;;;;;4991298;28;20381;-83
2023/01/14 03:38:15;;;;;;;17.15;3.90;;;5.90;99.90;;;;;;4971702;28;20050;-84
2023/01/14 03:40:42;;;;;;;23.58;3.95;;;5.90;99.90;;;;;;4970690;28;20050;-83
2023/01/14 03:43:20;;;;;;;18.60;3.70;;;5.80;99.90;;;;;;5007599;28;20054;-84
2023/01/14 03:45:46;;;;;;;22.55;3.92;;;5.90;99.90;;;;;;4988118;28;20479;-84
2023/01/14 03:48:12;;;;;;;16.98;3.42;;;5.80;99.90;;;;;;4989900;28;20048;-84
2023/01/14 03:51:08;;;;;;;21.77;4.20;;;5.80;99.90;;;;;;5025685;28;20102;-84
2023/01/14 03:53:42;;;;;;;15.48;3.50;;;5.80;99.90;;;;;;5003494;28;20128;-84
2023/01/14 03:56:10;;;;;;;16.10;3.95;;;5.70;99.90;;;;;;5004012;28;20038;-84
2023/01/14 03:58:59;;;;;;;20.60;4.07;;;5.70;99.90;;;;;;5020435;28;20039;-84
2023/01/14 04:01:31;;;;;;;23.27;3.90;;;5.70;99.90;;;;;;4996058;28;20129;-84
2023/01/14 04:03:59;;;;;;;18.55;3.80;;;5.70;99.90;;;;;;5004395;28;20102;-84
2023/01/14 04:06:25;;;;;;;18.40;3.78;;;5.70;99.90;;;;;;5003776;28;20226;-84
2023/01/14 04:08:50;;;;;;;16.05;3.67;;;5.60;99.90;;;;;;4974088;28;20035;-84
2023/01/14 04:11:16;;;;;;;25.40;3.95;;;5.60;99.90;;;;;;4969538;28;20034;-84
2023/01/14 04:16:26;;;;;;;20.17;4.13;;;5.60;99.90;;;;;;4986798;28;20077;-84
2023/01/14 04:18:51;;;;;;;22.98;3.95;;;5.70;99.90;;;;;;4966773;28;20089;-84
2023/01/14 04:21:17;;;;;;;19.75;3.85;;;5.70;99.90;;;;;;4969707;28;20049;-84
2023/01/14 04:23:42;;;;;;;20.80;3.78;;;5.70;99.90;;;;;;5001787;28;20433;-84
2023/01/14 04:26:08;;;;;;;23.23;4.15;;;5.70;99.90;;;;;;4980962;28;20042;-84
2023/01/14 04:28:34;;;;;;;19.58;3.58;;;5.70;99.90;;;;;;4969560;28;20042;-84
2023/01/14 04:30:59;;;;;;;18.65;3.90;;;5.60;99.90;;;;;;4967002;28;20039;-84
2023/01/14 04:33:25;;;;;;;25.08;4.05;;;5.60;99.90;;;;;;4983809;28;20053;-84
2023/01/14 04:35:51;;;;;;;21.48;4.65;;;5.60;99.90;;;;;;4974318;28;20171;-84
2023/01/14 04:38:21;;;;;;;21.70;3.70;;;5.60;99.90;;;;;;4968376;28;20042;-84
2023/01/14 04:40:56;;;;;;;17.08;3.72;;;5.60;99.90;;;;;;4992015;28;20062;-84
2023/01/14 04:43:23;;;;;;;24.90;3.33;;;5.60;99.90;;;;;;5046164;28;20050;-84
2023/01/14 04:45:53;;;;;;;20.15;4.10;;;5.60;99.90;;;;;;5006855;28;20040;-84
2023/01/14 04:48:20;;;;;;;18.48;4.00;;;5.60;99.90;;;;;;5019562;27;20055;-83
2023/01/14 04:50:47;;;;;;;19.45;3.85;;;5.60;99.90;;;;;;4970842;28;20034;-83
2023/01/14 04:53:16;;;;;;;20.65;4.20;;;5.60;99.90;;;;;;4979548;28;20038;-83
2023/01/14 04:55:46;;;;;;;19.25;3.42;;;5.60;99.90;;;;;;5003414;28;20046;-84
2023/01/14 04:58:14;;;;;;;22.13;4.57;;;5.60;99.90;;;;;;4984553;28;20046;-82
2023/01/14 05:00:40;;;;;;;17.95;3.47;;;5.60;99.90;;;;;;4999520;28;20070;-82
2023/01/14 05:03:09;;;;;;;22.55;4.65;;;5.60;99.90;;;;;;4974781;28;20436;-82
2023/01/14 05:05:35;;;;;;;17.30;3.50;;;5.60;99.90;;;;;;5019180;28;20451;-83
2023/01/14 05:08:03;;;;;;;19.80;3.58;;;5.60;99.90;;;;;;5003554;28;20135;-83
2023/01/14 05:10:29;;;;;;;22.60;3.78;;;5.60;99.90;;;;;;4966120;28;20111;-83
2023/01/14 05:12:57;;;;;;;16.20;3.60;;;5.60;99.90;;;;;;4996148;28;20402;-83
2023/01/14 05:15:24;;;;;;;19.15;3.75;;;5.50;99.90;;;;;;5014794;27;20046;-83
2023/01/14 05:17:50;;;;;;;22.23;4.00;;;5.50;99.90;;;;;;4980161;28;20051;-83
2023/01/14 05:20:16;;;;;;;19.00;3.40;;;5.50;99.90;;;;;;4997688;28;20478;-83
2023/01/14 05:22:41;;;;;;;20.77;4.32;;;5.50;99.90;;;;;;4988018;28;20561;-83
2023/01/14 05:25:07;;;;;;;20.33;4.18;;;5.50;99.90;;;;;;4984333;28;20123;-83
2023/01/14 05:27:33;;;;;;;18.83;3.58;;;5.50;99.90;;;;;;4972342;28;20402;-84
2023/01/14 05:29:59;;;;;;;15.35;3.33;;;5.50;99.90;;;;;;4995044;28;20121;-83
2023/01/14 05:32:24;;;;;;;20.02;3.75;;;5.50;99.90;;;;;;4988176;28;20151;-83
2023/01/14 05:34:50;;;;;;;23.63;3.88;;;5.50;99.90;;;;;;4968447;28;20486;-83
2023/01/14 05:37:16;;;;;;;20.95;4.05;;;5.50;99.90;;;;;;4974465;28;20114;-83
2023/01/14 05:39:41;;;;;;;18.48;4.57;;;5.60;99.90;;;;;;4966674;28;20061;-83
2023/01/14 05:47:35;;;;;;;22.73;4.38;;;5.60;99.90;;;;;;4984529;28;20082;-83
2023/01/14 05:50:01;;;;;;;21.05;4.38;;;5.60;99.90;;;;;;4971347;28;20089;-83
2023/01/14 05:52:26;;;;;;;16.10;3.85;;;5.60;99.90;;;;;;4984050;28;20039;-83
2023/01/14 05:54:52;;;;;;;25.60;4.57;;;5.70;99.90;;;;;;4982581;28;20037;-82
2023/01/14 05:57:17;;;;;;;19.08;4.18;;;5.70;99.90;;;;;;4979240;28;20042;-83
2023/01/14 05:59:43;;;;;;;22.00;4.18;;;5.70;99.90;;;;;;4973297;28;20065;-82
2023/01/14 06:07:38;;;;;;;21.33;5.05;;;5.70;99.90;;;;;;4980929;28;20038;-83
2023/01/14 06:10:04;;;;;;;21.23;5.20;;;5.70;99.90;;;;;;4980679;28;20050;-83
2023/01/14 06:12:57;;;;;;;24.55;5.03;;;5.70;99.90;;;;;;4971271;28;20039;-83
2023/01/14 06:15:32;;;;;;;23.80;4.70;;;5.70;99.90;;;;;;5004633;28;20053;-83
2023/01/14 06:18:09;;;;;;;18.60;3.88;;;5.70;99.90;;;;;;4977731;28;20042;-83
2023/01/14 06:20:37;;;;;;;22.60;4.97;;;5.70;99.90;;;;;;4980172;28;20040;-82
2023/01/14 06:23:04;;;;;;;21.63;4.53;;;5.70;99.90;;;;;;4968399;28;20046;-82
2023/01/14 06:25:30;;;;;;;20.15;4.57;;;5.80;99.90;;;;;;4966755;28;20042;-82
2023/01/14 06:27:57;;;;;;;21.33;5.15;;;5.80;99.90;;;;;;4968011;28;20038;-83
2023/01/14 06:30:23;;;;;;;22.40;5.72;;;5.70;99.90;;;;;;4969649;28;20038;-82
2023/01/14 06:32:49;;;;;;;23.60;5.03;;;5.80;99.90;;;;;;4968340;28;20547;-82
2023/01/14 06:35:15;;;;;;;19.67;5.53;;;5.80;99.90;;;;;;4969848;28;20078;-83
2023/01/14 06:37:45;;;;;;;23.70;5.97;;;5.80;99.90;;;;;;4980024;28;20051;-82
2023/01/14 06:40:12;;;;;;;26.30;5.93;;;5.80;99.90;;;;;;4970003;28;20049;-82
2023/01/14 06:42:40;;;;;;;22.92;5.85;;;5.70;99.90;;;;;;5043289;28;20095;-83
2023/01/14 06:45:07;;;;;;;22.50;5.78;;;5.80;99.90;;;;;;4979903;28;20640;-82
2023/01/14 06:47:32;;;;;;;20.95;5.60;;;5.80;99.90;;;;;;4987002;28;20031;-82
2023/01/14 06:49:58;;;;;;;34.28;6.00;;;5.80;99.90;;;;;;5000078;28;20449;-83
2023/01/14 06:52:24;;;;;;;24.08;5.60;;;5.80;99.90;;;;;;4972424;28;20034;-83
2023/01/14 06:54:51;;;;;;;25.70;5.80;;;5.80;99.90;;;;;;4969601;28;20050;-83
2023/01/14 06:57:17;;;;;;;26.33;5.65;;;5.80;99.90;;;;;;4998765;28;20052;-83
2023/01/14 06:59:43;;;;;;;27.88;6.50;;;5.80;99.90;;;;;;4976500;28;20043;-82
2023/01/14 07:02:11;;;;;;;24.55;6.95;;;5.80;99.90;;;;;;4967191;28;20094;-83
2023/01/14 07:04:37;;;;;;;32.78;7.10;;;5.80;99.90;;;;;;4966537;28;20092;-83
2023/01/14 07:07:03;;;;;;;27.25;6.82;;;5.80;99.90;;;;;;4963864;28;20493;-83
2023/01/14 07:09:28;;;;;;;28.35;7.25;;;5.80;99.90;;;;;;4983886;28;20049;-83
2023/01/14 07:11:54;;;;;;;31.00;7.38;;;5.80;99.90;;;;;;4988925;28;20036;-83
2023/01/14 07:14:20;;;;;;;28.52;7.03;;;5.80;99.90;;;;;;4995418;28;20074;-83
2023/01/14 07:16:45;;;;;;;29.45;7.40;;;5.80;99.90;;;;;;4982743;28;20044;-83
2023/01/14 07:19:11;;;;;;;27.83;7.18;;;5.80;99.90;;;;;;4978534;28;20042;-83
2023/01/14 07:21:37;;;;;;;31.33;7.18;;;5.90;99.90;;;;;;4984707;28;20046;-84
2023/01/14 07:24:04;;;;;;;26.70;7.13;;;5.90;99.90;;;;;;5011642;28;20044;-83
2023/01/14 07:26:29;;;;;;;24.48;7.15;;;5.90;99.90;;;;;;4989270;28;20034;-84
2023/01/14 07:28:55;;;;;;;29.42;6.80;;;5.90;99.90;;;;;;4964920;28;20042;-83
2023/01/14 07:31:21;;;;;;;25.52;5.50;;;5.90;99.90;;;;;;5002132;28;20042;-83
2023/01/14 07:33:46;;;;;;;24.80;6.63;;;6.00;99.90;;;;;;4986424;28;20043;-83
2023/01/14 07:36:12;;;;;;;28.13;5.38;;;6.00;99.90;;;;;;5001263;28;20100;-83
2023/01/14 07:38:37;;;;;;;24.55;5.60;;;6.00;99.90;;;;;;5005217;28;20414;-84
2023/01/14 07:41:12;;;;;;;23.67;5.68;;;6.00;99.90;;;;;;4964362;28;20127;-83
2023/01/14 07:43:38;;;;;;;27.88;6.70;;;6.10;99.90;;;;;;4993595;28;20073;-83
2023/01/14 07:46:04;;;;;;;21.90;5.80;;;6.10;99.90;;;;;;4965945;28;20038;-83
2023/01/14 07:48:30;;;;;;;23.27;5.78;;;6.10;99.90;;;;;;4967747;28;20031;-83
2023/01/14 07:50:56;;;;;;;28.98;6.72;;;6.10;99.90;;;;;;4979243;28;20099;-83
2023/01/14 07:53:22;;;;;;;28.50;6.97;;;6.10;99.90;;;;;;4963643;28;20096;-83
2023/01/14 07:55:47;;;;;;;32.67;7.50;;;6.10;99.90;;;;;;4970860;28;20042;-83
2023/01/14 07:58:14;;;;;;;28.02;7.22;;;6.10;99.90;;;;;;4985664;28;20066;-82
2023/01/14 08:00:40;;;;;;;31.75;8.57;;;6.10;99.90;;;;;;4978852;28;20046;-83
2023/01/14 08:03:06;;;;;;;29.98;8.00;;;6.10;99.90;;;;;;4976765;28;20508;-83
2023/01/14 08:05:35;;;;;;;26.77;6.03;;;6.20;99.90;;;;;;5005294;28;20414;-83
2023/01/14 08:08:00;;;;;;;25.52;6.03;;;6.20;99.90;;;;;;4973520;28;20042;-83
2023/01/14 08:10:26;;;;;;;29.63;7.15;;;6.20;99.90;;;;;;4988945;28;20034;-83
2023/01/14 08:12:51;;;;;;;33.40;7.70;;;6.20;99.90;;;;;;4982299;28;20464;-83
2023/01/14 08:15:18;;;;;;;23.63;5.75;;;6.20;99.90;;;;;;4976532;28;20049;-83
2023/01/14 08:17:43;;;;;;;31.45;7.32;;;6.20;99.90;;;;;;4975275;28;20038;-84
2023/01/14 08:20:10;;;;;;;26.67;7.05;;;6.30;99.90;;;;;;5001747;28;20411;-84
2023/01/14 08:22:35;;;;;;;24.60;6.43;;;6.30;99.90;;;;;;5004784;28;20046;-85
2023/01/14 08:25:01;;;;;;;33.20;7.63;;;6.30;99.90;;;;;;4964229;28;20922;-84
2023/01/14 08:27:27;;;;;;;25.90;6.30;;;6.30;99.90;;;;;;4969897;28;20493;-84
2023/01/14 08:29:54;;;;;;;25.98;5.80;;;6.30;99.90;;;;;;4963916;28;21572;-83
2023/01/14 08:32:20;;;;;;;36.78;7.55;;;6.30;99.90;;;;;;4980237;28;20054;-84
2023/01/14 08:34:46;;;;;;;27.33;6.47;;;6.30;99.90;;;;;;4984694;28;20042;-84
2023/01/14 08:37:11;;;;;;;37.10;6.15;;;6.30;99.90;;;;;;5020808;28;20094;-84
2023/01/14 08:39:37;;;;;;;28.67;5.55;;;6.20;99.90;;;;;;4984836;28;20043;-84
2023/01/14 08:42:03;;;;;;;25.45;5.68;;;6.30;99.90;;;;;;4995133;28;20259;-83
2023/01/14 08:44:29;;;;;;;30.98;6.43;;;6.30;99.90;;;;;;4990005;28;20400;-84
2023/01/14 08:46:54;;;;;;;23.13;5.95;;;6.30;99.90;;;;;;4968187;28;20039;-84
2023/01/14 08:49:20;;;;;;;25.23;5.60;;;6.20;99.90;;;;;;4992650;28;20559;-84
2023/01/14 08:51:46;;;;;;;24.90;6.15;;;6.20;99.90;;;;;;4989023;28;20065;-84
2023/01/14 08:54:12;;;;;;;22.80;5.18;;;6.20;99.90;;;;;;4998013;28;20065;-84
2023/01/14 08:56:37;;;;;;;24.27;5.68;;;6.20;99.90;;;;;;5005485;28;20046;-84
2023/01/14 08:59:03;;;;;;;22.33;4.88;;;6.20;99.90;;;;;;4974038;28;20038;-84
2023/01/14 09:01:29;;;;;;;27.73;6.15;;;6.20;99.90;;;;;;5003917;28;20040;-86
2023/01/14 09:03:57;;;;;;;17.75;5.18;;;6.20;99.90;;;;;;4974387;28;20096;-84
2023/01/14 09:06:23;;;;;;;21.10;5.28;;;6.20;99.90;;;;;;4976131;28;20508;-84
2023/01/14 09:17:10;;;;;;;19.15;4.53;;;6.20;99.90;;;;;;4973133;28;20054;-85
2023/01/14 09:19:52;;;;;;;19.35;4.90;;;6.20;99.90;;;;;;4961284;28;20069;-85
2023/01/14 09:22:21;;;;;;;20.85;4.50;;;6.20;99.90;;;;;;5030887;28;20038;-85
2023/01/14 09:24:47;;;;;;;22.20;4.45;;;6.20;99.90;;;;;;4961902;28;20406;-84
2023/01/14 09:27:13;;;;;;;26.05;5.97;;;6.20;99.90;;;;;;4962847;28;20041;-84
2023/01/14 09:29:39;;;;;;;16.85;4.18;;;6.20;99.90;;;;;;4960906;28;20051;-84
2023/01/14 09:32:12;;;;;;;19.15;4.45;;;6.20;99.90;;;;;;4982968;28;20427;-84
2023/01/14 09:34:47;;;;;;;22.73;5.28;;;6.20;99.90;;;;;;4999301;28;20036;-84
2023/01/14 09:37:19;;;;;;;27.77;5.10;;;6.20;99.90;;;;;;4969735;28;20049;-84
2023/01/14 09:39:45;;;;;;;18.73;4.78;;;6.20;99.90;;;;;;4977862;28;20050;-85
2023/01/14 09:42:36;;;;;;;16.60;4.75;;;6.20;99.90;;;;;;4983486;28;20522;-84
2023/01/14 09:45:23;;;;;;;15.80;4.05;;;6.20;99.90;;;;;;4981020;28;20855;-84
2023/01/14 09:47:49;;;;;;;13.80;3.80;;;6.20;99.90;;;;;;4967952;28;20110;-84
2023/01/14 09:50:20;;;;;;;20.77;5.13;;;6.30;99.90;;;;;;4968170;28;20490;-85
2023/01/14 09:53:27;;;;;;;19.80;4.38;;;6.30;99.90;;;;;;4985558;28;20193;-84
2023/01/14 09:56:13;;;;;;;13.60;4.30;;;6.30;99.90;;;;;;4995343;28;20051;-84
2023/01/14 09:58:52;;;;;;;18.63;4.88;;;6.30;99.90;;;;;;4980738;28;20049;-84
2023/01/14 10:01:44;;;;;;;19.55;4.65;;;6.20;99.90;;;;;;4976598;28;20047;-84
2023/01/14 10:04:28;;;;;;;15.30;4.00;;;6.30;99.90;;;;;;4975514;28;20524;-84
2023/01/14 10:06:57;;;;;;;10.68;3.40;;;6.30;99.90;;;;;;4954746;28;20042;-85
2023/01/14 10:09:35;;;;;;;14.95;4.30;;;6.30;99.90;;;;;;4958499;28;20043;-84
2023/01/14 10:12:06;;;;;;;11.90;3.33;;;6.30;99.90;;;;;;4977250;28;20053;-85
2023/01/14 10:14:43;;;;;;;13.13;3.63;;;6.40;99.90;;;;;;5005293;27;20048;-84
2023/01/14 10:17:15;;;;;;;10.23;3.38;;;6.40;99.90;;;;;;4976483;28;20068;-86
2023/01/14 10:19:49;;;;;;;9.98;3.40;;;6.40;99.90;;;;;;4958844;28;20061;-85
2023/01/14 10:22:33;;;;;;;10.75;3.35;;;6.50;99.90;;;;;;4960577;28;20452;-86
2023/01/14 10:24:59;;;;;;;10.23;3.60;;;6.50;99.90;;;;;;4974547;28;20050;-85
2023/01/14 10:27:28;;;;;;;7.65;3.30;;;6.50;99.90;;;;;;4994458;28;20046;-86
2023/01/14 10:29:56;;;;;;;12.82;3.83;;;6.60;99.90;;;;;;4969435;28;20452;-86
2023/01/14 10:32:23;;;;;;;9.88;3.20;;;6.60;99.90;;;;;;4973929;28;20034;-86
2023/01/14 10:34:54;;;;;;;7.32;2.50;;;6.60;99.90;;;;;;4953756;28;20044;-86
2023/01/14 10:37:19;;;;;;;5.45;2.28;;;6.70;99.90;;;;;;4974096;28;20042;-86
2023/01/14 10:39:51;;;;;;;6.30;2.63;;;6.80;99.90;;;;;;4978570;28;20054;-87
2023/01/14 10:42:25;;;;;;;9.82;3.10;;;6.90;99.90;;;;;;4977193;28;20058;-86
2023/01/14 10:44:51;;;;;;;;;;;7.00;99.90;;;;;;4974428;28;20066;-86
2023/01/14 10:47:18;;;;;;;9.00;2.95;;;7.00;99.90;;;;;;4960874;28;19967;-86
2023/01/14 10:49:55;;;;;;;10.13;2.97;;;7.10;99.90;;;;;;4962561;28;20034;-86
2023/01/14 10:52:20;;;;;;;9.57;3.10;;;7.00;99.90;;;;;;4990412;28;20047;-87
2023/01/14 10:54:55;;;;;;;8.38;3.00;;;7.00;99.90;;;;;;5004907;28;20042;-86
2023/01/14 10:57:21;;;;;;;7.70;2.97;;;7.10;99.90;;;;;;4995844;28;20620;-86
2023/01/14 10:59:52;;;;;;;8.73;2.90;;;7.10;99.90;;;;;;4995513;28;20043;-86
2023/01/14 11:02:30;;;;;;;9.10;2.97;;;7.10;99.90;;;;;;4992804;28;20042;-86
2023/01/14 11:04:57;;;;;;;5.38;2.60;;;7.10;99.90;;;;;;4969864;28;20046;-86
2023/01/14 11:07:30;;;;;;;7.53;2.78;;;7.20;99.90;;;;;;4984127;28;20045;-86
2023/01/14 11:09:59;;;;;;;6.13;2.70;;;7.20;99.90;;;;;;4977239;28;20038;-86
2023/01/14 11:12:31;;;;;;;5.07;2.60;;;7.20;99.90;;;;;;4993158;28;20049;-87
2023/01/14 11:14:57;;;;;;;7.40;2.80;;;7.20;99.90;;;;;;5026752;27;20045;-87
2023/01/14 11:17:29;;;;;;;5.85;2.70;;;7.20;99.90;;;;;;4965347;28;20065;-87
2023/01/14 11:20:27;;;;;;;7.13;2.88;;;7.20;99.90;;;;;;4971791;28;20135;-87
2023/01/14 11:23:26;;;;;;;5.45;2.70;;;7.20;99.90;;;;;;4958414;28;20049;-87
2023/01/14 11:25:52;;;;;;;7.13;2.75;;;7.20;99.90;;;;;;4974692;28;20419;-87
2023/01/14 11:28:18;;;;;;;7.22;2.75;;;7.20;99.90;;;;;;4971289;28;20042;-86
2023/01/14 11:30:49;;;;;;;5.80;2.80;;;7.20;99.90;;;;;;4974658;28;20043;-87
2023/01/14 11:33:21;;;;;;;7.03;2.97;;;7.20;99.90;;;;;;4960508;28;20042;-86
2023/01/14 11:35:54;;;;;;;5.28;2.60;;;7.30;99.90;;;;;;4985041;28;20046;-86
2023/01/14 11:38:21;;;;;;;5.05;2.65;;;7.30;99.90;;;;;;4975076;28;20058;-86
2023/01/14 11:43:53;;;;;;;2.78;2.30;;;7.30;99.90;;;;;;5000229;28;20050;-86
2023/01/14 11:46:19;;;;;;;7.18;3.47;;;7.30;99.90;;;;;;4962970;28;20465;-86
2023/01/14 11:48:58;;;;;;;6.40;2.70;;;7.30;99.90;;;;;;4974337;28;20047;-86
2023/01/14 11:51:25;;;;;;;3.53;2.42;;;7.20;99.90;;;;;;4989941;28;20539;-87
2023/01/14 11:53:52;;;;;;;4.93;2.60;;;7.30;99.90;;;;;;4968653;28;20248;-86
2023/01/14 11:56:40;;;;;;;5.47;2.78;;;7.30;99.90;;;;;;4977727;28;20460;-87
2023/01/14 11:59:29;;;;;;;6.72;2.70;;;7.30;99.90;;;;;;4983337;28;20518;-87
2023/01/14 12:02:09;;;;;;;6.07;2.50;;;7.30;99.90;;;;;;4986082;28;20609;-87
2023/01/14 12:04:59;;;;;;;7.63;2.92;;;7.30;99.90;;;;;;4986223;28;20514;-86
2023/01/14 12:07:40;;;;;;;5.53;2.50;;;7.30;99.90;;;;;;4976650;28;20125;-86
2023/01/14 12:10:32;;;;;;;5.57;2.90;;;7.30;99.90;;;;;;4968160;28;20053;-86
2023/01/14 12:18:54;;;;;;;5.28;2.30;;;7.40;99.90;;;;;;5011224;27;20403;-86
2023/01/14 12:21:25;;;;;;;3.97;2.58;;;7.40;99.90;;;;;;4974518;28;20075;-86
2023/01/14 12:24:00;;;;;;;7.00;2.83;;;7.50;99.90;;;;;;4996329;28;20088;-86
2023/01/14 12:26:30;;;;;;;;;;;7.50;99.90;;;;;;4982537;28;20066;-86
2023/01/14 12:29:01;;;;;;;4.78;2.53;;;7.50;99.90;;;;;;5016512;28;19925;-86
2023/01/14 12:31:43;;;;;;;4.75;2.50;;;7.50;99.90;;;;;;5043803;27;20039;-86
2023/01/14 12:34:24;;;;;;;5.43;2.78;;;7.60;99.90;;;;;;4991410;28;20049;-86
2023/01/14 12:36:55;;;;;;;6.05;2.78;;;7.60;99.90;;;;;;4997458;28;20117;-85
2023/01/14 12:45:47;;;;;;;5.80;2.50;;;7.70;99.90;;;;;;5026596;27;20046;-85
2023/01/14 12:48:18;;;;;;;3.95;2.10;;;7.70;99.90;;;;;;5001682;28;20040;-86
2023/01/14 12:51:18;;;;;;;4.78;2.47;;;7.80;99.90;;;;;;5000373;28;20032;-85
2023/01/14 12:53:43;;;;;;;4.30;2.58;;;7.80;99.90;;;;;;5023065;27;20069;-85
2023/01/14 12:56:21;;;;;;;3.97;2.25;;;7.90;99.90;;;;;;5002007;28;20635;-86
2023/01/14 12:58:58;;;;;;;4.72;2.47;;;7.90;99.90;;;;;;4969426;28;20038;-86
2023/01/14 13:01:30;;;;;;;4.40;2.22;;;7.90;99.90;;;;;;4989377;28;20116;-85
2023/01/14 13:04:17;;;;;;;4.43;2.45;;;8.00;99.90;;;;;;4975825;28;20038;-85
2023/01/14 13:06:44;;;;;;;5.53;2.67;;;8.00;99.90;;;;;;4972141;28;20047;-86
2023/01/14 13:09:21;;;;;;;5.18;2.40;;;8.10;99.90;;;;;;4982967;28;20130;-86
2023/01/14 13:11:51;;;;;;;4.75;2.53;;;8.10;99.90;;;;;;4982179;28;20035;-86
2023/01/14 13:14:23;;;;;;;4.22;2.50;;;8.20;99.90;;;;;;4968203;28;20376;-86
2023/01/14 13:16:49;;;;;;;3.85;2.50;;;8.30;99.90;;;;;;4966830;28;20046;-85
2023/01/14 13:19:24;;;;;;;6.53;2.90;;;8.30;99.90;;;;;;5002323;28;20049;-85
2023/01/14 13:21:59;;;;;;;4.43;2.55;;;8.30;99.90;;;;;;4984752;28;20080;-86
2023/01/14 13:24:34;;;;;;;4.68;2.80;;;8.40;99.90;;;;;;4981304;28;20049;-85
2023/01/14 13:27:02;;;;;;;5.93;2.80;;;8.50;99.90;;;;;;4965764;28;20082;-85
2023/01/14 13:29:31;;;;;;;4.15;2.38;;;8.50;99.90;;;;;;4971928;28;20520;-85
2023/01/14 13:31:58;;;;;;;5.22;2.67;;;8.50;99.90;;;;;;4981042;28;20043;-86
2023/01/14 13:34:26;;;;;;;3.97;2.13;;;8.60;99.90;;;;;;4979270;28;20047;-86
2023/01/14 13:37:00;;;;;;;5.65;2.47;;;8.70;99.90;;;;;;4977105;28;20406;-85
2023/01/14 13:39:28;;;;;;;4.63;2.35;;;8.70;99.90;;;;;;4965209;28;20053;-85
2023/01/14 13:41:57;;;;;;;5.13;2.05;;;8.70;99.90;;;;;;4984342;28;20475;-84
2023/01/14 13:44:25;;;;;;;3.75;2.30;;;8.80;99.90;;;;;;5003650;28;20510;-85
2023/01/14 13:46:58;;;;;;;4.80;2.20;;;8.90;99.90;;;;;;4990564;28;20042;-85
2023/01/14 13:49:50;;;;;;;3.33;2.00;;;8.90;99.90;;;;;;4979876;28;20053;-85